Time;durP1;ratioP1;P1;durP2;ratioP2;P2;SDS_P1;SDS_P2;PMS_P1;PMS_P2;Temp;Humidity;BMP_temperature;BMP_pressure;BME280_temperature;BME280_humidity;BME280_pressure;Samples;Min_cycle;Max_cycle;Signal;HPM_P1;HPM_P2
2022/09/25 00:01:14;;;;;;;7.30;1.85;;;;;;;;;;5033442;28;20050;-71
2022/09/25 00:03:40;;;;;;;4.68;1.90;;;;;;;;;;5033749;28;20469;-71
2022/09/25 00:06:10;;;;;;;10.90;3.33;;;12.20;99.90;;;;;;5033678;28;20045;-71
2022/09/25 00:08:37;;;;;;;9.30;2.83;;;;;;;;;;5033356;28;20517;-71
2022/09/25 00:11:14;;;;;;;6.85;2.10;;;;;;;;;;5033502;28;20519;-69
2022/09/25 00:13:40;;;;;;;8.30;2.08;;;;;;;;;;5033098;28;20052;-68
2022/09/25 00:16:08;;;;;;;10.18;2.22;;;;;;;;;;5033299;28;20042;-69
2022/09/25 00:21:19;;;;;;;9.77;2.38;;;;;;;;;;5033322;28;20045;-68
2022/09/25 00:23:45;;;;;;;12.05;2.17;;;;;;;;;;5016709;28;20045;-68
2022/09/25 00:26:13;;;;;;;7.68;1.88;;;;;;;;;;5033297;28;20052;-68
2022/09/25 00:28:40;;;;;;;7.13;1.90;;;11.90;99.90;;;;;;5033056;28;20041;-68
2022/09/25 00:31:07;;;;;;;7.88;2.10;;;;;;;;;;5016482;28;20049;-68
2022/09/25 00:33:33;;;;;;;6.45;1.90;;;;;;;;;;5032704;28;20390;-68
2022/09/25 00:36:03;;;;;;;9.93;2.20;;;11.90;99.90;;;;;;5016426;28;20053;-68
2022/09/25 00:38:30;;;;;;;12.93;2.35;;;;;;;;;;5032661;28;20513;-68
2022/09/25 00:40:57;;;;;;;4.90;1.77;;;;;;;;;;5032801;28;20124;-68
2022/09/25 00:43:55;;;;;;;9.65;2.70;;;11.80;99.90;;;;;;5032717;28;20050;-68
2022/09/25 00:46:24;;;;;;;6.45;2.00;;;;;;;;;;5018527;28;20054;-68
2022/09/25 00:49:12;;;;;;;8.13;2.25;;;11.50;99.90;;;;;;5016190;28;20084;-68
2022/09/25 00:51:40;;;;;;;3.55;1.85;;;;;;;;;;5032793;28;20045;-68
2022/09/25 00:54:07;;;;;;;6.65;2.00;;;;;;;;;;5032299;28;20053;-68
2022/09/25 00:56:41;;;;;;;8.15;1.83;;;;;;;;;;5032271;28;20143;-68
2022/09/25 00:59:11;;;;;;;5.82;2.47;;;11.60;99.90;;;;;;5032771;28;20159;-68
2022/09/25 01:01:37;;;;;;;6.90;1.90;;;;;;;;;;5033510;28;20042;-68
2022/09/25 01:04:03;;;;;;;4.75;1.77;;;;;;;;;;5032576;28;20057;-68
2022/09/25 01:06:29;;;;;;;5.72;2.00;;;;;;;;;;5032351;28;20052;-68
2022/09/25 01:08:56;;;;;;;8.82;1.85;;;;;;;;;;5032336;28;20159;-68
2022/09/25 01:11:22;;;;;;;7.10;2.05;;;;;;;;;;5032444;28;20393;-68
2022/09/25 01:13:48;;;;;;;5.38;1.80;;;;;;;;;;5032169;28;20139;-68
2022/09/25 01:16:50;;;;;;;12.35;2.47;;;11.30;99.90;;;;;;5032201;28;20470;-68
2022/09/25 01:19:26;;;;;;;7.22;1.83;;;;;;;;;;5032045;28;20041;-69
2022/09/25 01:22:22;;;;;;;9.38;2.17;;;11.50;99.90;;;;;;5015867;28;20041;-68
2022/09/25 01:24:57;;;;;;;9.48;3.03;;;11.20;99.90;;;;;;4973739;28;20049;-68
2022/09/25 01:27:32;;;;;;;11.63;2.28;;;;;;;;;;5015532;28;20048;-68
2022/09/25 01:30:02;;;;;;;8.35;2.40;;;;;;;;;;5031968;28;20438;-69
2022/09/25 01:32:50;;;;;;;11.38;2.80;;;11.40;99.90;;;;;;5015645;28;20533;-69
2022/09/25 01:35:25;;;;;;;12.50;2.80;;;;;;;;;;5031796;28;20445;-69
2022/09/25 01:38:02;;;;;;;15.13;2.50;;;;;;;;;;5015290;28;20053;-69
2022/09/25 01:40:32;;;;;;;10.30;2.20;;;;;;;;;;5032103;28;20049;-69
2022/09/25 01:43:00;;;;;;;9.98;2.38;;;;;;;;;;5033185;28;20107;-69
2022/09/25 01:45:36;;;;;;;7.97;2.42;;;;;;;;;;5031825;28;20037;-69
2022/09/25 01:48:04;;;;;;;5.68;1.85;;;11.30;99.90;;;;;;5031833;28;20045;-69
2022/09/25 01:50:54;;;;;;;6.40;2.00;;;11.40;99.90;;;;;;5031909;28;20045;-69
2022/09/25 01:53:26;;;;;;;6.10;2.00;;;11.30;99.90;;;;;;5031564;28;20041;-69
2022/09/25 01:55:57;;;;;;;6.50;2.03;;;11.20;99.90;;;;;;5031863;28;20037;-69
2022/09/25 01:58:35;;;;;;;6.28;1.90;;;11.40;99.90;;;;;;5031960;28;20048;-68
2022/09/25 02:01:09;;;;;;;6.43;2.10;;;11.20;99.90;;;;;;5015709;28;20057;-69
2022/09/25 02:03:55;;;;;;;7.50;1.70;;;;;;;;;;5032008;28;20087;-69
2022/09/25 02:06:21;;;;;;;8.63;2.20;;;;;;;;;;5034091;28;20465;-68
2022/09/25 02:08:53;;;;;;;8.10;2.00;;;;;;;;;;5037751;28;20037;-69
2022/09/25 02:11:19;;;;;;;6.00;2.10;;;;;;;;;;5036931;28;20053;-69
2022/09/25 02:14:11;;;;;;;5.28;1.75;;;;;;;;;;5035556;28;20380;-69
2022/09/25 02:16:42;;;;;;;12.68;1.90;;;11.10;99.90;;;;;;5048300;28;20132;-69
2022/09/25 02:22:23;;;;;;;8.88;1.92;;;11.10;99.90;;;;;;5035456;28;20045;-69
2022/09/25 02:25:08;;;;;;;11.50;2.60;;;11.20;99.90;;;;;;5035404;28;20049;-69
2022/09/25 02:27:35;;;;;;;9.68;1.70;;;;;;;;;;5035399;28;20079;-69
2022/09/25 02:30:01;;;;;;;9.27;2.15;;;;;;;;;;5035523;28;20068;-69
2022/09/25 02:32:31;;;;;;;15.00;2.47;;;11.20;99.90;;;;;;5036461;28;20467;-69
2022/09/25 02:35:01;;;;;;;12.07;2.42;;;;;;;;;;5018587;28;20042;-69
2022/09/25 02:37:27;;;;;;;8.98;1.95;;;;;;;;;;5018625;28;20501;-69
2022/09/25 02:39:56;;;;;;;6.00;1.40;;;;;;;;;;5036389;28;20429;-69
2022/09/25 02:42:43;;;;;;;9.30;1.90;;;11.00;99.90;;;;;;5034939;28;20045;-69
2022/09/25 02:45:22;;;;;;;6.78;2.00;;;;;;;;;;5035409;28;20045;-69
2022/09/25 02:48:12;;;;;;;6.28;2.28;;;11.20;99.90;;;;;;5036442;28;20386;-69
2022/09/25 02:50:51;;;;;;;7.97;1.70;;;11.20;99.90;;;;;;5036154;28;20044;-69
2022/09/25 02:54:02;;;;;;;7.63;2.33;;;11.10;99.90;;;;;;5035007;28;20120;-69
2022/09/25 02:56:28;;;;;;;9.57;1.85;;;;;;;;;;4997810;28;20068;-69
2022/09/25 02:58:57;;;;;;;10.30;1.88;;;;;;;;;;5034822;28;20482;-69
2022/09/25 03:01:25;;;;;;;8.48;1.98;;;11.20;99.90;;;;;;5034731;28;20049;-70
2022/09/25 03:03:56;;;;;;;8.80;1.70;;;11.40;99.90;;;;;;5035882;28;20087;-70
2022/09/25 03:06:22;;;;;;;8.55;1.45;;;;;;;;;;5034641;28;20045;-71
2022/09/25 03:08:51;;;;;;;5.88;1.52;;;;;;;;;;5034582;28;20041;-72
2022/09/25 03:11:20;;;;;;;5.25;1.35;;;;;;;;;;5018309;28;20389;-72
2022/09/25 03:13:58;;;;;;;4.50;1.33;;;11.20;99.90;;;;;;5034513;28;20052;-72
2022/09/25 03:16:50;;;;;;;6.63;1.42;;;11.30;99.90;;;;;;5018241;28;20044;-73
2022/09/25 03:19:18;;;;;;;2.87;1.27;;;;;;;;;;5034062;28;20072;-73
2022/09/25 03:21:45;;;;;;;3.72;1.20;;;;;;;;;;5034663;28;20055;-73
2022/09/25 03:24:11;;;;;;;6.82;1.95;;;;;;;;;;5034467;28;20037;-73
2022/09/25 03:26:39;;;;;;;5.47;1.40;;;;;;;;;;5017946;28;20052;-73
2022/09/25 03:29:05;;;;;;;5.43;1.70;;;;;;;;;;5034514;28;20058;-73
2022/09/25 03:31:31;;;;;;;4.55;1.52;;;;;;;;;;5034270;28;20041;-73
2022/09/25 03:33:58;;;;;;;8.27;1.45;;;;;;;;;;5034112;28;20124;-73
2022/09/25 03:36:26;;;;;;;4.25;1.25;;;11.40;99.90;;;;;;5034209;28;20045;-72
2022/09/25 03:38:56;;;;;;;3.00;1.20;;;11.50;99.90;;;;;;5034051;28;20409;-72
2022/09/25 03:41:23;;;;;;;7.18;1.60;;;;;;;;;;5034086;28;20083;-72
2022/09/25 03:43:53;;;;;;;5.13;1.40;;;11.40;99.90;;;;;;5034376;28;20166;-72
2022/09/25 03:46:20;;;;;;;7.30;1.75;;;;;;;;;;5033973;28;20592;-72
2022/09/25 03:48:46;;;;;;;6.22;2.30;;;;;;;;;;5033977;28;20170;-72
2022/09/25 03:51:12;;;;;;;3.58;1.80;;;;;;;;;;5034165;28;20120;-73
2022/09/25 03:53:41;;;;;;;9.40;2.00;;;;;;;;;;5033596;28;20048;-73
2022/09/25 03:56:13;;;;;;;3.38;1.40;;;11.40;99.90;;;;;;5033948;28;20059;-72
2022/09/25 03:58:39;;;;;;;10.03;1.80;;;;;;;;;;5017415;28;20444;-73
2022/09/25 04:01:05;;;;;;;5.45;1.42;;;;;;;;;;5034029;28;20039;-73
2022/09/25 04:03:32;;;;;;;4.97;1.67;;;11.40;99.90;;;;;;5033747;28;20045;-73
2022/09/25 04:06:03;;;;;;;3.78;1.58;;;11.30;99.90;;;;;;5033765;28;20125;-72
2022/09/25 04:08:30;;;;;;;2.80;1.20;;;;;;;;;;5033426;28;20123;-72
2022/09/25 04:11:00;;;;;;;5.53;1.52;;;11.00;99.90;;;;;;5034927;28;20041;-72
2022/09/25 04:13:28;;;;;;;4.85;1.27;;;;;;;;;;5033409;28;20485;-72
2022/09/25 04:15:55;;;;;;;4.88;1.42;;;;;;;;;;5033708;28;20046;-72
2022/09/25 04:18:21;;;;;;;4.20;1.30;;;;;;;;;;5033240;28;20045;-72
2022/09/25 04:20:47;;;;;;;5.05;1.42;;;;;;;;;;5016938;28;20049;-72
2022/09/25 04:23:14;;;;;;;5.53;1.50;;;;;;;;;;5000496;28;20083;-72
2022/09/25 04:25:40;;;;;;;4.72;1.40;;;;;;;;;;5016633;28;20053;-72
2022/09/25 04:28:06;;;;;;;5.35;1.80;;;;;;;;;;5033046;28;20048;-73
2022/09/25 04:30:32;;;;;;;7.55;1.70;;;11.10;99.90;;;;;;5032135;28;20042;-73
2022/09/25 04:35:43;;;;;;;5.80;1.38;;;;;;;;;;5033034;28;20049;-73
2022/09/25 04:38:10;;;;;;;6.00;1.50;;;;;;;;;;5016397;28;20520;-72
2022/09/25 04:40:36;;;;;;;6.50;1.42;;;;;;;;;;5016700;28;20095;-72
2022/09/25 04:43:04;;;;;;;9.32;2.22;;;11.10;99.90;;;;;;5033112;28;20060;-72
2022/09/25 04:45:30;;;;;;;7.35;2.15;;;;;;;;;;5032712;28;20041;-72
2022/09/25 04:47:58;;;;;;;8.05;1.75;;;;;;;;;;5034021;28;20037;-72
2022/09/25 04:50:25;;;;;;;7.95;1.65;;;;;;;;;;5032804;28;20037;-72
2022/09/25 04:52:51;;;;;;;7.38;1.83;;;;;;;;;;5016238;28;20084;-72
2022/09/25 04:55:19;;;;;;;7.32;1.55;;;11.30;99.90;;;;;;5032641;28;20099;-72
2022/09/25 04:57:45;;;;;;;6.25;1.58;;;;;;;;;;5032712;28;20436;-72
2022/09/25 05:00:15;;;;;;;5.75;1.88;;;11.30;99.90;;;;;;5016274;28;20040;-72
2022/09/25 05:02:41;;;;;;;6.60;1.60;;;;;;;;;;5016029;28;20063;-72
2022/09/25 05:05:08;;;;;;;12.02;1.77;;;;;;;;;;5032351;28;20083;-72
2022/09/25 05:07:34;;;;;;;9.15;2.08;;;;;;;;;;5032578;28;20045;-72
2022/09/25 05:10:00;;;;;;;3.80;1.77;;;;;;;;;;5032402;28;20053;-72
2022/09/25 05:12:26;;;;;;;7.00;1.70;;;;;;;;;;5032315;28;20048;-72
2022/09/25 05:14:52;;;;;;;3.88;1.40;;;;;;;;;;5032337;28;20045;-72
2022/09/25 05:17:18;;;;;;;8.30;2.10;;;;;;;;;;5032181;28;20045;-72
2022/09/25 05:19:44;;;;;;;10.43;1.60;;;;;;;;;;5032136;28;20033;-72
2022/09/25 05:22:10;;;;;;;5.55;1.80;;;;;;;;;;5032074;28;20038;-72
2022/09/25 05:24:37;;;;;;;8.70;2.33;;;;;;;;;;5015624;28;20049;-72
2022/09/25 05:27:03;;;;;;;3.78;1.52;;;;;;;;;;5031779;28;20473;-72
2022/09/25 05:29:30;;;;;;;5.05;1.70;;;;;;;;;;5031906;28;20041;-72
2022/09/25 05:31:56;;;;;;;3.92;1.60;;;;;;;;;;5032014;28;20041;-72
2022/09/25 05:34:22;;;;;;;8.02;1.50;;;;;;;;;;5031835;28;20050;-72
2022/09/25 05:36:48;;;;;;;5.75;1.70;;;;;;;;;;5031851;28;20044;-72
2022/09/25 05:39:14;;;;;;;5.25;1.50;;;;;;;;;;5031746;28;20049;-71
2022/09/25 05:41:40;;;;;;;7.28;2.15;;;;;;;;;;5031796;28;20037;-71
2022/09/25 05:44:08;;;;;;;6.25;1.80;;;;;;;;;;5031996;28;20124;-72
2022/09/25 05:46:38;;;;;;;4.85;1.30;;;11.20;99.90;;;;;;5031957;28;20107;-71
2022/09/25 05:49:04;;;;;;;8.45;2.00;;;;;;;;;;5033298;28;20102;-71
2022/09/25 05:51:30;;;;;;;4.20;1.73;;;;;;;;;;5031868;28;20041;-71
2022/09/25 05:53:58;;;;;;;6.32;1.85;;;;;;;;;;5015506;28;20041;-71
2022/09/25 05:56:30;;;;;;;5.78;1.85;;;;;;;;;;5031982;28;20048;-74
2022/09/25 05:58:57;;;;;;;5.53;1.77;;;;;;;;;;5031740;28;20041;-75
2022/09/25 06:01:23;;;;;;;10.02;2.35;;;;;;;;;;5031846;28;20044;-75
2022/09/25 06:03:49;;;;;;;6.63;2.03;;;;;;;;;;5015636;28;20052;-74
2022/09/25 06:06:15;;;;;;;8.15;2.17;;;;;;;;;;5031772;28;20049;-75
2022/09/25 06:08:41;;;;;;;7.25;2.40;;;;;;;;;;5032066;28;20067;-74
2022/09/25 06:11:10;;;;;;;13.73;2.45;;;;;;;;;;5015431;28;20099;-74
2022/09/25 06:13:36;;;;;;;4.05;1.80;;;;;;;;;;5031698;28;20054;-75
2022/09/25 06:16:04;;;;;;;4.00;2.10;;;;;;;;;;5031877;28;20084;-74
2022/09/25 06:18:31;;;;;;;7.25;2.10;;;;;;;;;;5031632;28;20037;-74
2022/09/25 06:21:02;;;;;;;6.43;2.13;;;;;;;;;;5031617;28;20041;-74
2022/09/25 06:23:28;;;;;;;6.25;2.00;;;;;;;;;;5031470;28;20048;-74
2022/09/25 06:25:54;;;;;;;7.45;2.40;;;;;;;;;;5031457;28;20477;-74
2022/09/25 06:28:20;;;;;;;7.03;2.17;;;;;;;;;;5031431;28;20417;-74
2022/09/25 06:30:46;;;;;;;5.75;2.17;;;;;;;;;;5015317;28;20115;-74
2022/09/25 06:33:13;;;;;;;3.20;2.03;;;;;;;;;;5031708;28;20466;-74
2022/09/25 06:35:44;;;;;;;7.13;2.78;;;11.20;99.90;;;;;;5031360;28;20041;-74
2022/09/25 06:38:10;;;;;;;7.30;3.00;;;;;;;;;;5031188;28;20064;-74
2022/09/25 06:40:39;;;;;;;9.95;3.45;;;;;;;;;;5031603;28;20045;-74
2022/09/25 06:43:06;;;;;;;5.82;2.97;;;11.40;99.90;;;;;;5015034;28;20550;-74
2022/09/25 06:45:33;;;;;;;9.30;3.45;;;11.20;99.90;;;;;;5031369;28;20512;-74
2022/09/25 06:48:00;;;;;;;8.10;3.40;;;;;;;;;;5031243;28;20038;-74
2022/09/25 06:50:30;;;;;;;9.82;3.67;;;;;;;;;;5031366;28;20049;-74
2022/09/25 06:52:58;;;;;;;8.38;3.55;;;;;;;;;;5031419;28;20120;-74
2022/09/25 06:55:24;;;;;;;7.10;3.17;;;;;;;;;;5034956;28;20180;-74
2022/09/25 06:57:50;;;;;;;10.15;3.90;;;;;;;;;;5035049;28;20094;-74
2022/09/25 07:00:16;;;;;;;7.60;4.40;;;;;;;;;;5035335;28;20045;-75
2022/09/25 07:05:27;;;;;;;9.77;4.85;;;;;;;;;;5035118;28;20038;-74
2022/09/25 07:07:54;;;;;;;12.57;5.07;;;;;;;;;;5018615;28;20045;-74
2022/09/25 07:10:20;;;;;;;7.90;4.13;;;;;;;;;;5035036;28;20041;-75
2022/09/25 07:12:47;;;;;;;6.90;4.10;;;;;;;;;;5018237;28;20053;-74
2022/09/25 07:15:14;;;;;;;9.07;3.97;;;;;;;;;;5018160;28;20123;-74
2022/09/25 07:17:43;;;;;;;16.10;4.85;;;11.60;99.90;;;;;;5018057;28;20037;-74
2022/09/25 07:20:14;;;;;;;12.98;4.72;;;;;;;;;;5034646;28;20073;-74
2022/09/25 07:22:40;;;;;;;11.70;4.63;;;;;;;;;;5034646;28;20037;-74
2022/09/25 07:25:06;;;;;;;11.95;4.28;;;;;;;;;;5017898;28;20497;-74
2022/09/25 07:27:32;;;;;;;8.23;4.10;;;;;;;;;;5034590;28;20041;-74
2022/09/25 07:29:59;;;;;;;14.10;4.53;;;;;;;;;;5034529;28;20118;-74
2022/09/25 07:32:25;;;;;;;14.10;4.78;;;;;;;;;;5034175;28;20037;-74
2022/09/25 07:34:51;;;;;;;9.55;4.65;;;;;;;;;;5033929;28;20052;-74
2022/09/25 07:37:17;;;;;;;10.82;3.75;;;12.10;99.90;;;;;;5033981;28;20050;-74
2022/09/25 07:39:44;;;;;;;8.45;3.97;;;;;;;;;;5034113;28;20057;-74
2022/09/25 07:42:10;;;;;;;7.95;4.22;;;;;;;;;;5034246;28;20048;-74
2022/09/25 07:44:38;;;;;;;16.65;4.22;;;;;;;;;;5017349;28;20132;-74
2022/09/25 07:47:06;;;;;;;10.20;3.92;;;;;;;;;;5033823;28;20041;-74
2022/09/25 07:49:33;;;;;;;9.73;3.90;;;;;;;;;;5034118;28;20055;-74
2022/09/25 07:52:00;;;;;;;20.98;4.88;;;;;;;;;;5017458;28;20128;-74
2022/09/25 07:54:26;;;;;;;14.70;4.03;;;;;;;;;;5033681;28;20060;-74
2022/09/25 07:56:52;;;;;;;21.25;6.00;;;;;;;;;;5033902;28;20560;-74
2022/09/25 07:59:18;;;;;;;13.77;4.00;;;;;;;;;;5033652;28;20091;-74
2022/09/25 08:01:45;;;;;;;15.15;3.47;;;;;;;;;;5033662;28;20041;-74
2022/09/25 08:04:11;;;;;;;8.13;3.03;;;;;;;;;;5033518;28;20045;-74
2022/09/25 08:06:37;;;;;;;5.43;1.80;;;;;;;;;;5034030;28;20401;-75
2022/09/25 08:09:03;;;;;;;6.55;1.90;;;;;;;;;;5017112;28;20405;-75
2022/09/25 08:11:30;;;;;;;12.07;2.03;;;;;;;;;;5033576;28;20045;-75
2022/09/25 08:13:56;;;;;;;12.68;2.35;;;;;;;;;;5017325;28;20129;-75
2022/09/25 08:16:22;;;;;;;11.85;2.10;;;;;;;;;;5033815;28;20095;-75
2022/09/25 08:18:49;;;;;;;10.38;2.83;;;;;;;;;;5033856;28;20045;-74
2022/09/25 08:21:16;;;;;;;8.25;1.83;;;;;;;;;;5033310;28;20041;-74
2022/09/25 08:23:44;;;;;;;8.30;1.88;;;13.00;99.90;;;;;;5033352;28;20052;-74
2022/09/25 08:26:10;;;;;;;11.98;1.83;;;;;;;;;;5033347;28;20127;-74
2022/09/25 08:28:36;;;;;;;11.63;2.83;;;;;;;;;;5033141;28;20041;-74
2022/09/25 08:31:03;;;;;;;8.45;1.60;;;;;;;;;;5033091;28;20499;-74
2022/09/25 08:33:33;;;;;;;6.30;1.88;;;13.00;99.90;;;;;;5033121;28;20045;-74
2022/09/25 08:36:04;;;;;;;7.88;1.48;;;13.30;99.90;;;;;;5033021;28;20048;-74
2022/09/25 08:38:33;;;;;;;5.65;1.58;;;13.00;99.90;;;;;;5032861;28;20057;-74
2022/09/25 08:41:30;;;;;;;6.68;1.40;;;13.30;99.90;;;;;;5033295;28;20045;-74
2022/09/25 08:44:05;;;;;;;5.35;1.77;;;13.30;99.90;;;;;;5031598;28;20057;-74
2022/09/25 08:49:25;;;;;;;4.00;1.58;;;;;;;;;;5032584;28;20433;-74
2022/09/25 08:51:56;;;;;;;5.50;1.45;;;13.50;99.90;;;;;;5032598;28;20049;-74
2022/09/25 08:54:24;;;;;;;8.48;2.10;;;13.90;99.90;;;;;;5032445;28;20498;-74
2022/09/25 08:56:54;;;;;;;4.10;1.10;;;13.60;99.90;;;;;;5032873;28;20041;-73
2022/09/25 08:59:27;;;;;;;5.40;1.15;;;;;;;;;;5016095;28;20383;-74
2022/09/25 09:02:01;;;;;;;10.50;1.50;;;13.70;99.90;;;;;;5016053;28;20052;-73
2022/09/25 09:04:55;;;;;;;5.90;1.40;;;13.90;99.90;;;;;;5015910;28;20052;-73
2022/09/25 09:07:33;;;;;;;6.82;1.30;;;13.70;99.90;;;;;;5029070;28;20512;-73
2022/09/25 09:10:29;;;;;;;4.78;1.20;;;13.80;99.90;;;;;;5032296;28;20124;-73
2022/09/25 09:13:23;;;;;;;3.78;1.20;;;13.80;99.90;;;;;;5015913;28;20073;-73
2022/09/25 09:15:55;;;;;;;6.20;1.30;;;13.90;99.90;;;;;;5031882;28;20045;-73
2022/09/25 09:18:27;;;;;;;4.85;1.33;;;14.00;99.90;;;;;;5016003;28;20042;-73
2022/09/25 09:20:57;;;;;;;5.32;1.10;;;;;;;;;;5032234;28;20076;-73
2022/09/25 09:23:27;;;;;;;5.03;1.30;;;;;;;;;;5032195;28;20045;-73
2022/09/25 09:26:01;;;;;;;7.05;1.30;;;13.80;99.90;;;;;;5032277;28;20038;-73
2022/09/25 09:28:28;;;;;;;2.67;1.17;;;;;;;;;;5032161;28;20045;-73
2022/09/25 09:31:25;;;;;;;9.93;1.33;;;14.20;99.90;;;;;;5033455;28;20063;-73
2022/09/25 09:34:24;;;;;;;4.93;1.60;;;14.10;99.90;;;;;;5031760;28;20046;-73
2022/09/25 09:36:57;;;;;;;7.15;1.42;;;;;;;;;;5033279;28;20045;-73
2022/09/25 09:39:35;;;;;;;6.90;1.45;;;14.10;99.90;;;;;;5031930;28;20046;-73
2022/09/25 09:42:25;;;;;;;6.15;1.20;;;14.30;99.90;;;;;;5032050;28;20521;-73
2022/09/25 09:44:57;;;;;;;4.57;1.40;;;;;;;;;;5032391;28;20053;-73
2022/09/25 09:47:50;;;;;;;9.48;1.55;;;;;;;;;;5032106;28;20398;-73
2022/09/25 09:50:22;;;;;;;4.50;1.45;;;;;;;;;;5011463;28;20498;-72
2022/09/25 09:52:50;;;;;;;3.78;1.25;;;;;;;;;;5015683;28;20048;-73
2022/09/25 09:55:16;;;;;;;5.35;1.17;;;;;;;;;;5031678;28;20092;-73
2022/09/25 09:57:53;;;;;;;6.13;1.40;;;;;;;;;;5031676;28;20045;-73
2022/09/25 10:00:21;;;;;;;7.95;1.38;;;;;;;;;;5031968;28;20068;-72
2022/09/25 10:02:59;;;;;;;4.03;1.10;;;;;;;;;;5033530;28;20465;-73
2022/09/25 10:05:40;;;;;;;7.18;1.63;;;14.80;99.90;;;;;;5031740;28;20049;-73
2022/09/25 10:08:08;;;;;;;2.33;0.90;;;15.00;99.90;;;;;;5031617;28;20050;-72
2022/09/25 10:10:36;;;;;;;4.05;1.10;;;15.20;99.90;;;;;;5031682;28;20175;-72
2022/09/25 10:13:10;;;;;;;7.25;1.70;;;15.10;99.90;;;;;;5033023;28;20046;-73
2022/09/25 10:15:41;;;;;;;3.20;1.00;;;15.40;99.90;;;;;;5032072;28;20064;-73
2022/09/25 10:18:08;;;;;;;6.93;0.93;;;15.10;98.80;;;;;;5031602;28;20164;-73
2022/09/25 10:20:44;;;;;;;4.97;1.30;;;15.20;99.20;;;;;;5031579;28;20053;-73
2022/09/25 10:23:34;;;;;;;6.97;1.15;;;15.20;99.90;;;;;;5031528;28;20500;-73
2022/09/25 10:26:00;;;;;;;8.45;1.55;;;;;;;;;;5032660;28;20049;-73
2022/09/25 10:28:34;;;;;;;4.88;1.30;;;15.10;99.80;;;;;;5032554;28;20049;-73
2022/09/25 10:31:02;;;;;;;4.35;1.13;;;15.10;99.60;;;;;;5035537;28;20042;-73
2022/09/25 10:33:31;;;;;;;3.67;1.42;;;15.80;99.90;;;;;;5035410;28;20048;-73
2022/09/25 10:35:58;;;;;;;9.90;2.67;;;;;;;;;;5035094;28;20512;-73
2022/09/25 10:38:27;;;;;;;4.88;1.02;;;;;;;;;;5035043;28;20055;-72
2022/09/25 10:41:01;;;;;;;7.85;1.10;;;;;;;;;;5035205;28;20041;-72
2022/09/25 10:43:28;;;;;;;8.23;1.92;;;;;;;;;;5035386;28;20049;-72
2022/09/25 10:50:09;;;;;;;5.40;1.00;;;14.40;99.90;;;;;;5035375;28;20045;-73
2022/09/25 10:52:07;;;;;;;4.05;1.20;;;;;;;;;;5034905;28;20046;-73
2022/09/25 10:54:34;;;;;;;5.80;1.15;;;14.10;99.90;;;;;;5032211;28;20080;-73
2022/09/25 10:57:00;;;;;;;5.13;1.33;;;;;;;;;;5035133;28;20395;-72
2022/09/25 10:59:27;;;;;;;5.65;1.40;;;;;;;;;;5034970;28;20052;-72
2022/09/25 11:01:54;;;;;;;4.65;1.08;;;14.50;99.90;;;;;;5034800;28;20041;-73
2022/09/25 11:04:28;;;;;;;2.90;1.00;;;15.00;99.90;;;;;;5035091;28;20049;-73
2022/09/25 11:07:05;;;;;;;6.18;1.17;;;14.50;99.70;;;;;;5035094;28;20053;-72
2022/09/25 11:09:34;;;;;;;6.63;1.00;;;14.70;99.70;;;;;;5018173;28;20049;-72
2022/09/25 11:12:24;;;;;;;7.50;1.17;;;14.70;99.80;;;;;;5034643;28;20128;-72
2022/09/25 11:14:57;;;;;;;5.65;1.30;;;14.60;99.80;;;;;;5034499;28;20124;-72
2022/09/25 11:17:37;;;;;;;6.25;1.17;;;;;;;;;;5034766;28;20052;-72
2022/09/25 11:20:18;;;;;;;7.28;1.20;;;15.00;98.60;;;;;;5034559;28;20055;-72
2022/09/25 11:22:49;;;;;;;5.40;1.33;;;15.00;99.20;;;;;;5034522;28;20497;-72
2022/09/25 11:25:16;;;;;;;7.10;1.42;;;;;;;;;;5034685;28;20405;-72
2022/09/25 11:27:55;;;;;;;7.78;1.17;;;;;;;;;;5034166;28;20569;-72
2022/09/25 11:30:22;;;;;;;5.68;1.50;;;;;;;;;;5034170;28;20095;-72
2022/09/25 11:33:02;;;;;;;5.22;1.20;;;16.00;98.00;;;;;;5034423;28;20143;-72
2022/09/25 11:35:59;;;;;;;9.38;1.30;;;15.30;99.90;;;;;;5017474;28;20514;-72
2022/09/25 11:42:00;;;;;;;7.18;1.25;;;16.30;96.70;;;;;;5033983;28;20041;-73
2022/09/25 11:44:27;;;;;;;6.18;1.00;;;;;;;;;;5033853;28;20104;-72
2022/09/25 11:47:11;;;;;;;4.45;1.30;;;16.40;95.30;;;;;;5034090;28;20048;-72
2022/09/25 11:49:41;;;;;;;4.43;1.00;;;17.10;97.50;;;;;;5034164;28;20053;-72
2022/09/25 11:52:07;;;;;;;8.10;1.40;;;;;;;;;;5035268;28;20500;-72
2022/09/25 11:54:51;;;;;;;8.38;1.55;;;16.70;95.70;;;;;;5033964;28;20099;-73
2022/09/25 11:57:36;;;;;;;3.05;1.25;;;;;;;;;;5033856;28;20053;-72
2022/09/25 12:00:03;;;;;;;7.65;1.20;;;;;;;;;;5017441;28;20037;-72
2022/09/25 12:02:29;;;;;;;4.13;0.80;;;;;;;;;;5033678;28;20208;-72
2022/09/25 12:04:55;;;;;;;4.22;0.95;;;;;;;;;;5033474;28;20075;-72
2022/09/25 12:07:38;;;;;;;6.60;1.05;;;16.80;93.80;;;;;;5033774;28;20095;-73
2022/09/25 12:10:27;;;;;;;3.25;1.00;;;16.50;94.60;;;;;;5033526;28;20044;-72
2022/09/25 12:12:53;;;;;;;6.30;1.02;;;;;;;;;;5033724;28;20041;-72
2022/09/25 12:15:49;;;;;;;4.22;0.90;;;17.00;93.10;;;;;;5033524;28;20037;-73
2022/09/25 12:18:37;;;;;;;4.32;1.00;;;17.30;92.30;;;;;;5033310;28;20037;-73
2022/09/25 12:21:14;;;;;;;2.72;0.80;;;17.20;93.20;;;;;;5033790;28;20042;-72
2022/09/25 12:23:57;;;;;;;5.70;0.75;;;17.50;92.90;;;;;;5033158;28;20049;-72
2022/09/25 12:26:50;;;;;;;3.28;1.10;;;;;;;;;;5033257;28;20045;-72
2022/09/25 12:29:28;;;;;;;2.13;1.00;;;;;;;;;;5033124;28;20052;-72
2022/09/25 12:32:07;;;;;;;4.47;0.95;;;16.70;95.80;;;;;;5017019;28;20379;-72
2022/09/25 12:35:09;;;;;;;5.45;1.10;;;17.50;91.70;;;;;;5016485;28;20548;-72
2022/09/25 12:37:49;;;;;;;2.22;0.80;;;17.30;91.50;;;;;;5032800;28;20057;-70
2022/09/25 12:40:25;;;;;;;5.88;1.13;;;;;;;;;;5032634;28;20080;-68
2022/09/25 12:42:51;;;;;;;3.22;1.33;;;;;;;;;;5033234;28;20041;-71
2022/09/25 12:45:48;;;;;;;2.83;0.85;;;17.70;91.80;;;;;;5032594;28;20561;-72
2022/09/25 12:48:38;;;;;;;2.30;1.00;;;17.90;91.20;;;;;;5031726;28;20392;-72
2022/09/25 12:51:05;;;;;;;3.75;0.90;;;;;;;;;;5031952;28;20080;-71
2022/09/25 12:53:56;;;;;;;4.28;1.10;;;17.70;90.70;;;;;;5032879;28;20456;-71
2022/09/25 12:56:50;;;;;;;8.38;1.08;;;17.20;90.30;;;;;;5032534;28;20038;-71
2022/09/25 12:59:42;;;;;;;8.30;1.10;;;17.10;91.50;;;;;;5023051;28;20379;-71
2022/09/25 13:02:21;;;;;;;;;;;17.30;91.90;;;;;;5016702;28;20486;-72
2022/09/25 13:05:05;;;;;;;1.90;0.70;;;17.10;90.70;;;;;;5016171;28;19917;-70
2022/09/25 13:07:31;;;;;;;6.97;1.20;;;;;;;;;;5032447;28;20075;-69
2022/09/25 13:09:58;;;;;;;6.38;1.00;;;16.90;92.90;;;;;;5015881;28;20046;-69
2022/09/25 13:12:32;;;;;;;1.30;0.82;;;;;;;;;;5032440;28;20095;-69
2022/09/25 13:15:14;;;;;;;3.92;1.10;;;;;;;;;;5032276;28;20075;-69
2022/09/25 13:17:40;;;;;;;4.82;0.90;;;17.00;91.60;;;;;;5032616;28;20371;-69
2022/09/25 13:20:25;;;;;;;7.22;1.35;;;17.30;91.20;;;;;;5032356;28;20353;-69
2022/09/25 13:22:51;;;;;;;5.30;1.10;;;;;;;;;;5032351;28;20041;-69
2022/09/25 13:25:17;;;;;;;6.75;1.10;;;;;;;;;;5032466;28;20393;-69
2022/09/25 13:27:46;;;;;;;3.47;0.70;;;17.50;90.70;;;;;;5032183;28;20047;-69
2022/09/25 13:30:28;;;;;;;13.45;1.80;;;17.90;90.40;;;;;;5032095;28;20481;-69
2022/09/25 13:33:02;;;;;;;5.35;0.90;;;17.50;93.40;;;;;;5032106;28;20050;-69
2022/09/25 13:35:31;;;;;;;2.55;0.82;;;18.00;89.70;;;;;;5032017;28;20045;-69
2022/09/25 13:41:12;;;;;;;8.00;1.85;;;18.40;88.00;;;;;;5033454;28;20112;-69
2022/09/25 13:43:38;;;;;;;5.07;1.02;;;19.10;92.40;;;;;;5033216;28;20063;-69
2022/09/25 13:46:20;;;;;;;2.47;0.60;;;17.70;89.70;;;;;;5032073;28;20128;-69
2022/09/25 13:48:47;;;;;;;2.95;0.70;;;19.20;92.20;;;;;;5031818;28;20409;-69
2022/09/25 13:51:22;;;;;;;3.90;1.08;;;;;;;;;;5015363;28;20076;-69
2022/09/25 13:53:48;;;;;;;2.97;0.70;;;;;;;;;;5031441;28;20056;-69
2022/09/25 13:56:20;;;;;;;7.63;0.90;;;18.80;84.90;;;;;;5031033;28;20056;-69
2022/09/25 13:59:18;;;;;;;1.77;0.60;;;19.20;91.60;;;;;;5031956;28;20033;-69
2022/09/25 14:02:21;;;;;;;4.00;0.90;;;17.60;91.30;;;;;;5031954;28;20055;-69
2022/09/25 14:04:47;;;;;;;6.25;0.90;;;;;;;;;;5035669;28;20080;-69
2022/09/25 14:07:23;;;;;;;1.85;0.77;;;18.80;92.10;;;;;;5035870;28;20497;-69
2022/09/25 14:09:53;;;;;;;3.15;0.70;;;18.60;86.70;;;;;;5019548;28;20150;-69
2022/09/25 14:12:41;;;;;;;2.38;0.60;;;18.80;92.20;;;;;;5019301;28;20084;-69
2022/09/25 14:15:21;;;;;;;6.25;1.00;;;18.60;85.60;;;;;;5035682;28;20103;-68
2022/09/25 14:17:51;;;;;;;3.33;0.90;;;18.20;85.40;;;;;;5036896;28;20103;-69
2022/09/25 14:20:30;;;;;;;4.10;1.02;;;18.50;91.30;;;;;;5036942;28;20037;-69
2022/09/25 14:23:12;;;;;;;4.38;1.15;;;19.10;92.30;;;;;;5019122;28;20050;-69
2022/09/25 14:25:41;;;;;;;2.35;0.60;;;;;;;;;;5036633;28;20049;-69
2022/09/25 14:28:22;;;;;;;4.88;0.90;;;18.90;92.60;;;;;;5035968;28;20057;-69
2022/09/25 14:31:00;;;;;;;2.70;1.23;;;18.40;90.70;;;;;;5036543;28;20045;-69
2022/09/25 14:33:27;;;;;;;10.13;1.00;;;;;;;;;;5036174;28;20114;-69
2022/09/25 14:35:53;;;;;;;7.63;1.17;;;;;;;;;;5035333;28;20175;-69
2022/09/25 14:39:00;;;;;;;3.70;0.70;;;17.20;93.00;;;;;;5035136;28;20132;-69
2022/09/25 14:41:51;;;;;;;3.55;0.80;;;17.20;87.30;;;;;;5018672;28;20037;-70
2022/09/25 14:44:17;;;;;;;3.20;0.77;;;;;;;;;;5018705;28;20099;-67